Time,TemperatureF,DewpointF,PressureIn,WindDirection,WindDirectionDegrees,WindSpeedMPH,WindSpeedGustMPH,Humidity,HourlyPrecipIn,Conditions,Clouds,dailyrainin,SoftwareType,DateUTC
2013-01-31 00:03:00,27.0,23.0,29.68,West,273,6.0,25.0,84,0.00,,,0.67,,2013-01-31 05:03:00,
2013-01-31 00:11:00,27.0,23.0,29.68,West,273,6.0,25.0,84,0.00,,,0.67,,2013-01-31 05:11:00,
2013-01-31 00:22:00,27.0,23.0,29.69,West,273,6.0,12.0,84,0.00,,,0.67,,2013-01-31 05:22:00,
2013-01-31 00:31:00,27.0,23.0,29.69,West,273,6.0,12.0,84,0.00,,,0.67,,2013-01-31 05:31:00,
2013-01-31 00:41:00,26.0,22.0,29.70,West,273,6.0,19.0,85,0.00,,,0.67,,2013-01-31 05:41:00,
2013-01-31 00:52:00,26.0,22.0,29.70,West,273,6.0,19.0,85,0.00,,,0.67,,2013-01-31 05:52:00,
2013-01-31 01:01:00,26.0,22.0,29.70,West,273,6.0,19.0,85,0.00,,,0.67,,2013-01-31 06:01:00,
2013-01-31 01:10:00,26.0,22.0,29.70,West,273,6.0,19.0,85,0.00,,,0.67,,2013-01-31 06:10:00,
2013-01-31 09:02:00,24.0,18.0,29.91,West,273,4.0,13.0,76,0.00,,,0.11,,2013-01-31 14:02:00,
2013-01-31 09:11:00,24.0,18.0,29.91,West,273,4.0,13.0,76,0.00,,,0.11,,2013-01-31 14:11:00,
2013-01-31 09:22:00,24.0,18.0,29.92,West,272,6.0,13.0,76,0.00,,,0.11,,2013-01-31 14:22:00,
2013-01-31 09:32:00,24.0,18.0,29.92,West,273,5.0,11.0,77,0.00,,,0.11,,2013-01-31 14:32:00,
2013-01-31 09:42:00,24.0,18.0,29.92,West,273,5.0,11.0,77,0.00,,,0.11,,2013-01-31 14:42:00,
2013-01-31 09:52:00,25.0,19.0,29.93,West,273,4.0,10.0,77,0.00,,,0.11,,2013-01-31 14:52:00,
2013-01-31 10:03:00,25.0,19.0,29.93,West,273,3.0,8.0,79,0.00,,,0.11,,2013-01-31 15:03:00,
2013-01-31 10:12:00,25.0,19.0,29.94,West,273,6.0,15.0,77,0.00,,,0.11,,2013-01-31 15:12:00,
2013-01-31 10:22:00,25.0,19.0,29.94,West,273,6.0,15.0,77,0.00,,,0.11,,2013-01-31 15:22:00,
2013-01-31 10:32:00,25.0,19.0,29.94,West,273,3.0,8.0,78,0.00,,,0.11,,2013-01-31 15:32:00,
2013-01-31 10:42:00,25.0,19.0,29.94,West,273,3.0,8.0,78,0.00,,,0.11,,2013-01-31 15:42:00,
2013-01-31 10:52:00,25.0,18.0,29.95,West,273,6.0,14.0,73,0.00,,,0.11,,2013-01-31 15:52:00,
2013-01-31 11:03:00,26.0,19.0,29.96,West,273,3.0,9.0,73,0.00,,,0.11,,2013-01-31 16:03:00,
2013-01-31 11:12:00,26.0,18.0,29.96,West,273,3.0,8.0,72,0.00,,,0.11,,2013-01-31 16:12:00,
2013-01-31 11:21:00,26.0,18.0,29.96,West,273,3.0,8.0,72,0.00,,,0.11,,2013-01-31 16:21:00,
2013-01-31 11:32:00,26.0,19.0,29.96,West,273,3.0,6.0,74,0.00,,,0.11,,2013-01-31 16:32:00,
2013-01-31 11:42:00,26.0,19.0,29.96,West,273,3.0,6.0,74,0.00,,,0.11,,2013-01-31 16:42:00,
2013-01-31 11:52:00,26.0,20.0,29.97,West,273,4.0,10.0,77,0.00,,,0.11,,2013-01-31 16:52:00,
2013-01-31 12:02:00,26.0,20.0,29.97,West,273,3.0,10.0,79,0.00,,,0.11,,2013-01-31 17:02:00,
2013-01-31 12:12:00,26.0,21.0,29.97,West,273,5.0,11.0,80,0.00,,,0.11,,2013-01-31 17:12:00,
2013-01-31 12:23:00,26.0,21.0,29.97,West,273,5.0,11.0,80,0.00,,,0.11,,2013-01-31 17:23:00,
2013-01-31 12:32:00,27.0,21.0,29.97,West,273,4.0,10.0,79,0.00,,,0.11,,2013-01-31 17:32:00,
2013-01-31 12:43:00,27.0,21.0,29.97,West,273,4.0,10.0,79,0.00,,,0.11,,2013-01-31 17:43:00,
2013-01-31 12:53:00,27.0,22.0,29.97,West,273,3.0,9.0,82,0.00,,,0.11,,2013-01-31 17:53:00,
2013-01-31 13:02:00,27.0,21.0,29.97,West,273,5.0,13.0,78,0.00,,,0.11,,2013-01-31 18:02:00,
2013-01-31 13:12:00,28.0,19.0,29.97,West,273,8.0,19.0,69,0.00,,,0.11,,2013-01-31 18:12:00,
2013-01-31 13:22:00,28.0,19.0,29.97,West,273,8.0,19.0,69,0.00,,,0.11,,2013-01-31 18:22:00,
2013-01-31 13:32:00,28.0,20.0,29.96,West,273,5.0,14.0,71,0.00,,,0.11,,2013-01-31 18:32:00,
2013-01-31 13:43:00,28.0,20.0,29.96,West,273,5.0,14.0,71,0.00,,,0.11,,2013-01-31 18:43:00,
2013-01-31 13:52:00,28.0,20.0,29.96,West,273,6.0,11.0,73,0.00,,,0.11,,2013-01-31 18:52:00,
2013-01-31 14:02:00,28.0,21.0,29.95,West,273,5.0,10.0,74,0.00,,,0.11,,2013-01-31 19:02:00,
2013-01-31 14:12:00,28.0,21.0,29.95,West,273,5.0,10.0,74,0.00,,,0.11,,2013-01-31 19:12:00,
2013-01-31 14:21:00,29.0,20.0,29.95,West,273,5.0,16.0,70,0.00,,,0.11,,2013-01-31 19:21:00,
2013-01-31 14:32:00,29.0,21.0,29.95,West,273,5.0,12.0,71,0.00,,,0.11,,2013-01-31 19:32:00,
2013-01-31 14:42:00,29.0,21.0,29.95,West,273,5.0,12.0,71,0.00,,,0.11,,2013-01-31 19:42:00,
2013-01-31 14:52:00,29.0,20.0,29.95,WSW,255,6.0,17.0,70,0.00,,,0.11,,2013-01-31 19:52:00,
2013-01-31 15:02:00,29.0,21.0,29.95,WSW,255,3.0,9.0,73,0.00,,,0.10,,2013-01-31 20:02:00,
2013-01-31 15:11:00,30.0,22.0,29.94,WSW,256,4.0,10.0,72,0.00,,,0.06,,2013-01-31 20:11:00,
2013-01-31 15:21:00,30.0,22.0,29.94,WSW,256,4.0,10.0,72,0.00,,,0.06,,2013-01-31 20:21:00,
2013-01-31 15:31:00,29.0,20.0,29.94,WSW,244,6.0,12.0,70,0.00,,,0.06,,2013-01-31 20:31:00,
2013-01-31 15:42:00,30.0,22.0,29.94,WSW,244,6.0,14.0,72,0.00,,,0.06,,2013-01-31 20:42:00,
2013-01-31 15:52:00,30.0,22.0,29.94,WSW,244,6.0,14.0,72,0.00,,,0.06,,2013-01-31 20:52:00,
2013-01-31 16:02:00,29.0,21.0,29.94,WSW,244,5.0,10.0,71,0.00,,,0.05,,2013-01-31 21:02:00,
2013-01-31 16:12:00,29.0,20.0,29.94,WSW,244,5.0,13.0,68,0.00,,,0.03,,2013-01-31 21:12:00,
2013-01-31 16:21:00,29.0,20.0,29.94,WSW,244,5.0,13.0,68,0.00,,,0.03,,2013-01-31 21:21:00,
2013-01-31 16:31:00,29.0,19.0,29.94,WSW,244,6.0,12.0,67,0.00,,,0.03,,2013-01-31 21:31:00,
2013-01-31 16:42:00,29.0,19.0,29.94,WSW,244,6.0,12.0,67,0.00,,,0.03,,2013-01-31 21:42:00,
2013-01-31 16:52:00,29.0,20.0,29.93,WSW,244,5.0,11.0,69,0.00,,,0.03,,2013-01-31 21:52:00,
2013-01-31 17:02:00,29.0,21.0,29.95,WSW,244,6.0,14.0,73,0.00,,,0.02,,2013-01-31 22:02:00,
2013-01-31 17:11:00,29.0,22.0,29.95,WSW,244,4.0,11.0,76,0.00,,,0.01,,2013-01-31 22:11:00,
2013-01-31 17:22:00,29.0,22.0,29.95,WSW,244,4.0,11.0,76,0.00,,,0.01,,2013-01-31 22:22:00,
2013-01-31 17:32:00,28.0,22.0,29.95,WSW,244,5.0,12.0,78,0.00,,,0.01,,2013-01-31 22:32:00,
2013-01-31 17:42:00,28.0,22.0,29.95,WSW,244,5.0,12.0,78,0.00,,,0.01,,2013-01-31 22:42:00,
2013-01-31 17:52:00,28.0,24.0,29.96,WSW,244,4.0,10.0,83,0.00,,,0.01,,2013-01-31 22:52:00,
2013-01-31 18:02:00,28.0,23.0,29.96,WSW,244,5.0,10.0,82,0.00,,,0.01,,2013-01-31 23:02:00,
2013-01-31 18:12:00,27.0,24.0,29.96,WSW,244,3.0,9.0,87,0.00,,,0.00,,2013-01-31 23:12:00,
2013-01-31 18:21:00,27.0,24.0,29.96,WSW,244,3.0,9.0,87,0.00,,,0.00,,2013-01-31 23:21:00,
2013-01-31 18:31:00,27.0,24.0,29.96,WSW,244,3.0,8.0,87,0.00,,,-99.99,,2013-01-31 23:31:00,
2013-01-31 18:42:00,27.0,24.0,29.96,WSW,244,3.0,8.0,87,0.00,,,-99.99,,2013-01-31 23:42:00,
2013-01-31 18:52:00,26.0,23.0,29.97,WSW,244,3.0,7.0,90,0.00,,,0.00,,2013-01-31 23:52:00,
2013-01-31 19:01:00,25.0,23.0,29.97,WSW,244,3.0,7.0,93,0.00,,,0.00,,2013-02-01 00:01:00,
2013-01-31 19:11:00,25.0,23.0,29.97,WSW,244,3.0,7.0,93,0.00,,,0.00,,2013-02-01 00:11:00,
2013-01-31 19:21:00,24.0,22.0,29.98,WSW,244,3.0,7.0,93,0.00,,,0.00,,2013-02-01 00:21:00,
2013-01-31 19:32:00,23.0,21.0,29.99,WSW,244,4.0,11.0,93,0.00,,,0.00,,2013-02-01 00:32:00,
2013-01-31 19:42:00,23.0,21.0,29.99,WSW,244,4.0,11.0,93,0.00,,,0.00,,2013-02-01 00:42:00,
2013-01-31 19:52:00,22.0,20.0,30.01,WSW,244,4.0,11.0,93,0.00,,,0.00,,2013-02-01 00:52:00,
2013-01-31 20:01:00,21.0,19.0,30.02,WSW,244,3.0,8.0,93,0.00,,,0.00,,2013-02-01 01:01:00,
2013-01-31 20:11:00,20.0,18.0,30.03,WSW,244,3.0,10.0,92,0.00,,,0.00,,2013-02-01 01:11:00,
2013-01-31 20:21:00,20.0,18.0,30.03,WSW,244,3.0,10.0,92,0.00,,,0.00,,2013-02-01 01:21:00,
2013-01-31 20:31:00,19.0,17.0,30.04,WSW,244,6.0,11.0,90,0.00,,,0.00,,2013-02-01 01:31:00,
2013-01-31 20:42:00,19.0,17.0,30.04,WSW,244,6.0,11.0,90,0.00,,,0.00,,2013-02-01 01:42:00,
2013-01-31 20:52:00,18.0,16.0,30.05,WSW,244,4.0,10.0,91,0.00,,,0.00,,2013-02-01 01:52:00,
2013-01-31 21:01:00,18.0,15.0,30.05,WSW,244,6.0,12.0,87,0.00,,,0.00,,2013-02-01 02:01:00,
2013-01-31 21:11:00,18.0,15.0,30.05,WSW,244,6.0,12.0,87,0.00,,,0.00,,2013-02-01 02:11:00,
2013-01-31 21:21:00,17.0,14.0,30.07,WSW,244,4.0,10.0,86,0.00,,,0.00,,2013-02-01 02:21:00,
2013-01-31 21:31:00,17.0,14.0,30.07,WSW,244,4.0,10.0,86,0.00,,,0.00,,2013-02-01 02:31:00,
2013-01-31 21:41:00,17.0,14.0,30.07,WSW,244,4.0,10.0,86,0.00,,,0.00,,2013-02-01 02:41:00,
2013-01-31 21:52:00,15.0,11.0,30.09,WSW,244,5.0,11.0,83,0.00,,,0.00,,2013-02-01 02:52:00,
2013-01-31 22:01:00,14.0,10.0,30.10,WSW,244,4.0,9.0,82,0.00,,,0.00,,2013-02-01 03:01:00,
2013-01-31 22:12:00,14.0,10.0,30.10,WSW,244,4.0,9.0,82,0.00,,,0.00,,2013-02-01 03:12:00,
2013-01-31 22:21:00,14.0,9.0,30.11,WSW,244,4.0,9.0,81,0.00,,,0.00,,2013-02-01 03:21:00,
2013-01-31 22:32:00,13.0,8.0,30.12,WSW,244,3.0,8.0,80,0.00,,,0.00,,2013-02-01 03:32:00,
2013-01-31 22:41:00,13.0,8.0,30.12,WSW,244,3.0,8.0,80,0.00,,,0.00,,2013-02-01 03:41:00,
2013-01-31 22:52:00,12.0,7.0,30.13,WSW,244,3.0,10.0,80,0.00,,,0.00,,2013-02-01 03:52:00,
2013-01-31 23:02:00,12.0,7.0,30.15,WSW,244,3.0,9.0,81,0.00,,,0.00,,2013-02-01 04:02:00,
2013-01-31 23:11:00,12.0,7.0,30.16,WSW,244,4.0,11.0,79,0.00,,,0.00,,2013-02-01 04:11:00,
2013-01-31 23:21:00,12.0,7.0,30.16,WSW,244,4.0,11.0,79,0.00,,,0.00,,2013-02-01 04:21:00,
2013-01-31 23:31:00,11.0,6.0,30.17,WSW,244,4.0,12.0,79,0.00,,,0.00,,2013-02-01 04:31:00,
2013-01-31 23:41:00,11.0,6.0,30.17,WSW,244,4.0,12.0,79,0.00,,,0.00,,2013-02-01 04:41:00,
2013-01-31 23:52:00,11.0,6.0,30.18,WSW,244,5.0,11.0,81,0.00,,,0.00,,2013-02-01 04:52:00,